createdAt,value
2022-11-13T00:01:26.639Z,7.63
2022-11-13T00:04:13.758Z,7.57
2022-11-13T00:07:02.700Z,7.00
2022-11-13T00:09:50.029Z,7.00
2022-11-13T00:12:37.289Z,7.23
2022-11-13T00:15:24.249Z,7.80
2022-11-13T00:18:11.283Z,7.43
2022-11-13T00:20:58.974Z,6.53
2022-11-13T00:23:47.372Z,6.50
2022-11-13T00:26:34.304Z,5.70
2022-11-13T00:29:22.364Z,7.00
2022-11-13T00:32:09.515Z,5.87
2022-11-13T00:34:56.514Z,6.43
2022-11-13T00:37:45.516Z,7.00
2022-11-13T00:40:35.194Z,6.80
2022-11-13T00:43:22.709Z,6.40
2022-11-13T00:46:11.122Z,6.97
2022-11-13T00:48:58.373Z,6.30
2022-11-13T00:51:45.473Z,6.50
2022-11-13T00:54:32.454Z,6.03
2022-11-13T00:57:21.104Z,6.53
2022-11-13T01:00:10.054Z,6.30
2022-11-13T01:02:57.135Z,6.43
2022-11-13T01:05:46.120Z,5.83
2022-11-13T01:08:33.033Z,6.90
2022-11-13T01:11:22.849Z,6.17
2022-11-13T01:14:11.576Z,6.63
2022-11-13T01:16:58.671Z,6.77
2022-11-13T01:19:45.670Z,6.60
2022-11-13T01:22:32.687Z,6.63
2022-11-13T01:25:20.130Z,6.77
2022-11-13T01:28:07.086Z,6.27
2022-11-13T01:30:55.804Z,6.07
2022-11-13T01:33:43.167Z,6.90
2022-11-13T01:36:30.795Z,6.83
2022-11-13T01:39:18.106Z,6.30
2022-11-13T01:42:05.299Z,6.30
2022-11-13T01:44:55.178Z,6.10
2022-11-13T01:47:44.114Z,6.03
2022-11-13T01:50:31.334Z,6.07
2022-11-13T01:53:18.134Z,5.90
2022-11-13T01:56:05.214Z,5.70
2022-11-13T01:59:00.864Z,6.30
2022-11-13T02:01:49.093Z,5.13
2022-11-13T02:04:38.559Z,5.20
2022-11-13T02:07:26.049Z,6.10
2022-11-13T02:10:13.228Z,6.00
2022-11-13T02:13:00.177Z,5.97
2022-11-13T02:15:48.298Z,5.90
2022-11-13T02:18:37.817Z,5.67
2022-11-13T02:21:36.468Z,5.97
2022-11-13T02:24:29.579Z,6.30
2022-11-13T02:27:22.492Z,5.80
2022-11-13T02:30:16.283Z,6.23
2022-11-13T02:33:20.779Z,5.60
2022-11-13T02:36:11.201Z,5.73
2022-11-13T02:39:02.284Z,5.60
2022-11-13T02:41:51.504Z,5.70
2022-11-13T02:44:39.187Z,5.87
2022-11-13T02:47:26.711Z,6.00
2022-11-13T02:50:15.340Z,4.63
2022-11-13T02:53:03.650Z,5.70
2022-11-13T02:55:50.660Z,5.77
2022-11-13T02:58:39.426Z,5.90
2022-11-13T03:01:26.860Z,6.53
2022-11-13T03:04:14.970Z,5.83
2022-11-13T03:07:02.018Z,6.10
2022-11-13T03:09:49.594Z,6.70
2022-11-13T03:12:36.754Z,6.70
2022-11-13T03:15:25.465Z,5.63
2022-11-13T03:18:13.724Z,5.93
2022-11-13T03:21:08.311Z,6.70
2022-11-13T03:23:56.137Z,6.03
2022-11-13T03:26:43.799Z,6.43
2022-11-13T03:29:31.025Z,6.13
2022-11-13T03:32:19.176Z,6.17
2022-11-13T03:35:06.972Z,7.13
2022-11-13T03:37:54.450Z,6.03
2022-11-13T03:40:41.523Z,6.27
2022-11-13T03:43:29.045Z,6.63
2022-11-13T03:46:16.892Z,6.70
2022-11-13T03:49:09.733Z,6.13
2022-11-13T03:51:56.920Z,6.13
2022-11-13T03:54:44.441Z,6.50
2022-11-13T03:57:32.298Z,6.20
2022-11-13T04:00:20.206Z,6.30
2022-11-13T04:03:07.689Z,6.40
2022-11-13T04:05:56.944Z,6.40
2022-11-13T04:08:44.113Z,6.70
2022-11-13T04:11:31.507Z,6.77
2022-11-13T04:14:19.243Z,5.97
2022-11-13T04:17:07.211Z,6.33
2022-11-13T04:19:54.333Z,5.30
2022-11-13T04:22:42.968Z,5.20
2022-11-13T04:25:31.779Z,5.63
2022-11-13T04:28:19.054Z,5.13
2022-11-13T04:31:06.490Z,5.40
2022-11-13T04:33:53.478Z,6.20
2022-11-13T04:36:41.101Z,6.20
2022-11-13T04:39:30.604Z,5.33
2022-11-13T04:42:35.346Z,4.90
2022-11-13T04:45:24.018Z,6.50
2022-11-13T04:48:11.065Z,6.33
2022-11-13T04:50:58.168Z,7.33
2022-11-13T04:53:44.814Z,6.97
2022-11-13T04:56:33.656Z,6.67
2022-11-13T04:59:20.601Z,6.70
2022-11-13T05:02:07.703Z,7.20
2022-11-13T05:04:54.549Z,6.23
2022-11-13T05:07:42.734Z,7.80
2022-11-13T05:10:30.159Z,7.33
2022-11-13T05:13:18.848Z,6.07
2022-11-13T05:16:08.992Z,6.33
2022-11-13T05:18:56.188Z,5.67
2022-11-13T05:21:43.719Z,5.83
2022-11-13T05:24:31.445Z,5.97
2022-11-13T05:27:18.441Z,5.97
2022-11-13T05:30:08.368Z,5.10
2022-11-13T05:32:55.568Z,4.47
2022-11-13T05:35:42.859Z,4.73
2022-11-13T05:38:30.529Z,4.70
2022-11-13T05:41:19.997Z,3.93
2022-11-13T05:44:07.165Z,4.13
2022-11-13T05:46:55.934Z,4.37
2022-11-13T05:49:43.564Z,5.00
2022-11-13T05:52:31.035Z,4.43
2022-11-13T05:55:23.045Z,4.80
2022-11-13T05:58:11.991Z,5.20
2022-11-13T06:01:10.569Z,4.30
2022-11-13T06:04:00.383Z,4.60
2022-11-13T06:06:47.766Z,4.90
2022-11-13T06:09:34.776Z,4.77
2022-11-13T06:12:21.769Z,5.10
2022-11-13T06:15:09.628Z,4.43
2022-11-13T06:17:56.891Z,5.53
2022-11-13T06:20:45.390Z,4.77
2022-11-13T06:23:34.649Z,4.67
2022-11-13T06:26:23.995Z,4.90
2022-11-13T06:29:13.451Z,5.00
2022-11-13T06:32:00.391Z,4.33
2022-11-13T06:34:47.201Z,5.03
2022-11-13T06:37:35.769Z,4.93
2022-11-13T06:40:22.841Z,5.03
2022-11-13T06:43:10.230Z,4.50
2022-11-13T06:45:58.543Z,4.20
2022-11-13T06:48:45.645Z,4.33
2022-11-13T06:51:33.004Z,4.37
2022-11-13T06:54:21.568Z,4.13
2022-11-13T06:57:08.739Z,3.87
2022-11-13T06:59:56.139Z,4.67
2022-11-13T07:02:42.808Z,4.07
2022-11-13T07:05:29.846Z,4.10
2022-11-13T07:08:18.358Z,3.77
2022-11-13T07:11:07.870Z,4.10
2022-11-13T07:13:55.021Z,3.80
2022-11-13T07:17:07.456Z,3.60
2022-11-13T07:19:49.609Z,3.53
2022-11-13T07:22:37.639Z,3.33
2022-11-13T07:25:24.708Z,4.67
2022-11-13T07:28:13.876Z,3.43
2022-11-13T07:31:02.292Z,3.73
2022-11-13T07:33:51.368Z,3.37
2022-11-13T07:36:41.400Z,3.90
2022-11-13T07:39:28.542Z,3.00
2022-11-13T07:42:15.658Z,3.20
2022-11-13T07:45:05.406Z,3.27
2022-11-13T07:47:52.309Z,3.00
2022-11-13T07:50:43.259Z,2.90
2022-11-13T07:53:30.776Z,3.10
2022-11-13T07:56:22.895Z,3.07
2022-11-13T07:59:10.238Z,2.63
2022-11-13T08:01:58.602Z,3.30
2022-11-13T08:04:45.930Z,2.60
2022-11-13T08:07:33.224Z,3.13
2022-11-13T08:10:21.681Z,2.87
2022-11-13T08:13:10.586Z,2.90
2022-11-13T08:16:00.759Z,2.60
2022-11-13T08:18:49.899Z,3.30
2022-11-13T08:21:37.560Z,3.30
2022-11-13T08:24:24.470Z,3.60
2022-11-13T08:27:11.872Z,3.53
2022-11-13T08:29:58.871Z,3.60
2022-11-13T08:32:46.738Z,3.60
2022-11-13T08:35:35.203Z,3.97
2022-11-13T08:38:22.344Z,3.60
2022-11-13T08:41:10.115Z,4.13
2022-11-13T08:43:56.994Z,4.00
2022-11-13T08:46:44.341Z,3.77
2022-11-13T08:49:31.780Z,4.23
2022-11-13T08:52:20.256Z,3.60
2022-11-13T08:55:08.434Z,3.23
2022-11-13T08:57:55.831Z,3.93
2022-11-13T09:00:43.917Z,3.70
2022-11-13T09:03:31.128Z,3.73
2022-11-13T09:06:18.224Z,4.13
2022-11-13T09:09:11.741Z,3.40
2022-11-13T09:11:59.031Z,4.03
2022-11-13T09:14:46.411Z,3.80
2022-11-13T09:17:34.123Z,3.00
2022-11-13T09:20:23.052Z,3.83
2022-11-13T09:23:10.773Z,3.43
2022-11-13T09:26:03.086Z,3.30
2022-11-13T09:28:50.376Z,3.33
2022-11-13T09:31:41.375Z,3.00
2022-11-13T09:34:29.178Z,3.23
2022-11-13T09:37:17.067Z,3.10
2022-11-13T09:40:04.946Z,3.13
2022-11-13T09:42:54.072Z,3.53
2022-11-13T09:45:42.950Z,3.20
2022-11-13T09:48:36.348Z,3.50
2022-11-13T09:51:28.457Z,2.37
2022-11-13T09:54:17.482Z,2.80
2022-11-13T09:57:14.926Z,2.70
2022-11-13T10:00:07.012Z,2.30
2022-11-13T10:03:04.600Z,2.70
2022-11-13T10:06:00.896Z,2.30
2022-11-13T10:08:54.159Z,2.47
2022-11-13T10:11:45.211Z,2.40
2022-11-13T10:14:36.890Z,2.33
2022-11-13T10:17:30.424Z,1.83
2022-11-13T10:20:22.610Z,2.17
2022-11-13T10:23:16.419Z,2.00
2022-11-13T10:26:15.431Z,2.43
2022-11-13T10:29:07.405Z,2.43
2022-11-13T10:31:55.277Z,2.20
2022-11-13T10:34:48.623Z,2.73
2022-11-13T10:37:56.137Z,2.57
2022-11-13T10:40:43.637Z,2.33
2022-11-13T10:43:31.122Z,2.70
2022-11-13T10:46:21.690Z,2.50
2022-11-13T10:49:14.350Z,2.77
2022-11-13T10:52:08.410Z,2.60
2022-11-13T10:55:15.741Z,2.43
2022-11-13T10:58:05.057Z,2.00
2022-11-13T11:00:53.322Z,2.10
2022-11-13T11:03:50.549Z,2.03
2022-11-13T11:09:50.293Z,2.00
2022-11-13T11:12:37.716Z,1.87
2022-11-13T11:15:29.285Z,2.50
2022-11-13T11:18:25.300Z,2.57
2022-11-13T11:21:18.519Z,2.53
2022-11-13T11:24:10.848Z,2.40
2022-11-13T11:27:06.914Z,2.20
2022-11-13T11:30:05.121Z,2.30
2022-11-13T11:33:02.276Z,2.43
2022-11-13T11:35:53.958Z,3.63
2022-11-13T11:38:49.812Z,2.53
2022-11-13T11:41:42.732Z,2.80
2022-11-13T11:44:39.620Z,3.00
2022-11-13T11:47:27.276Z,2.43
2022-11-13T11:50:17.828Z,3.17
2022-11-13T11:53:13.507Z,2.23
2022-11-13T11:56:23.609Z,2.70
2022-11-13T11:59:21.341Z,1.33
2022-11-13T12:02:37.453Z,1.10
2022-11-13T12:05:27.065Z,1.27
2022-11-13T12:08:27.326Z,1.20
2022-11-13T12:11:24.455Z,1.07
2022-11-13T12:14:20.577Z,1.30
2022-11-13T12:17:27.980Z,1.30
2022-11-13T12:20:28.443Z,1.30
2022-11-13T12:23:28.009Z,1.23
2022-11-13T12:26:22.921Z,1.30
2022-11-13T12:29:27.023Z,1.50
2022-11-13T12:32:26.092Z,1.20
2022-11-13T12:35:18.399Z,1.20
2022-11-13T12:38:19.481Z,1.20
2022-11-13T12:41:17.125Z,1.30
2022-11-13T12:44:24.748Z,0.83
2022-11-13T12:47:12.260Z,1.40
2022-11-13T12:50:05.836Z,1.17
2022-11-13T12:53:01.219Z,1.20
2022-11-13T12:56:00.267Z,1.20
2022-11-13T12:59:29.895Z,1.23
2022-11-13T13:02:27.031Z,1.23
2022-11-13T13:05:40.067Z,1.53
2022-11-13T13:08:58.095Z,1.60
2022-11-13T13:11:55.221Z,1.37
2022-11-13T13:15:05.137Z,1.50
2022-11-13T13:18:04.290Z,1.47
2022-11-13T13:21:02.404Z,1.37
2022-11-13T13:23:51.115Z,1.60
2022-11-13T13:26:48.383Z,1.50
2022-11-13T13:29:35.622Z,1.47
2022-11-13T13:32:28.304Z,1.27
2022-11-13T13:35:19.447Z,1.73
2022-11-13T13:38:17.242Z,1.57
2022-11-13T13:41:18.522Z,1.40
2022-11-13T13:44:33.494Z,1.27
2022-11-13T13:47:27.057Z,1.53
2022-11-13T13:50:18.564Z,1.63
2022-11-13T13:53:06.964Z,1.60
2022-11-13T13:55:56.963Z,1.60
2022-11-13T13:58:44.409Z,1.40
2022-11-13T14:01:35.048Z,1.33
2022-11-13T14:04:24.696Z,1.40
2022-11-13T14:07:25.771Z,1.50
2022-11-13T14:10:18.386Z,1.27
2022-11-13T14:13:06.049Z,1.53
2022-11-13T14:16:03.445Z,1.60
2022-11-13T14:18:53.054Z,1.70
2022-11-13T14:21:40.175Z,1.60
2022-11-13T14:24:37.954Z,1.63
2022-11-13T14:27:27.272Z,1.77
2022-11-13T14:30:25.283Z,1.90
2022-11-13T14:33:18.899Z,2.13
2022-11-13T14:36:08.540Z,2.30
2022-11-13T14:38:56.326Z,2.30
2022-11-13T14:41:50.204Z,2.70
2022-11-13T14:44:37.296Z,2.37
2022-11-13T14:47:28.855Z,3.10
2022-11-13T14:50:22.529Z,2.80
2022-11-13T14:53:12.683Z,2.70
2022-11-13T14:56:03.821Z,2.83
2022-11-13T14:58:51.152Z,3.10
2022-11-13T15:01:39.786Z,3.17
2022-11-13T15:04:28.535Z,3.10
2022-11-13T15:07:28.644Z,4.00
2022-11-13T15:10:19.062Z,3.77
2022-11-13T15:13:13.807Z,4.07
2022-11-13T15:16:00.931Z,3.87
2022-11-13T15:18:51.083Z,3.80
2022-11-13T15:21:38.101Z,3.70
2022-11-13T15:24:25.315Z,3.07
2022-11-13T15:27:17.231Z,3.23
2022-11-13T15:30:05.208Z,3.20
2022-11-13T15:32:54.209Z,3.93
2022-11-13T15:35:43.420Z,2.80
2022-11-13T15:38:30.918Z,3.03
2022-11-13T15:41:21.512Z,3.60
2022-11-13T15:44:14.418Z,4.17
2022-11-13T15:47:01.446Z,3.77
2022-11-13T15:50:09.931Z,4.30
2022-11-13T15:53:02.338Z,3.67
2022-11-13T15:55:51.940Z,4.77
2022-11-13T15:58:39.336Z,5.63
2022-11-13T16:01:28.160Z,4.80
2022-11-13T16:04:16.662Z,5.10
2022-11-13T16:07:04.245Z,5.23
2022-11-13T16:09:51.335Z,5.27
2022-11-13T16:12:42.513Z,5.33
2022-11-13T16:15:30.011Z,5.33
2022-11-13T16:18:27.904Z,5.33
2022-11-13T16:21:15.671Z,4.93
2022-11-13T16:24:02.840Z,5.30
2022-11-13T16:26:56.601Z,4.90
2022-11-13T16:29:44.203Z,4.40
2022-11-13T16:32:31.576Z,5.17
2022-11-13T16:35:21.475Z,4.30
2022-11-13T16:38:13.732Z,4.33
2022-11-13T16:41:01.098Z,4.60
2022-11-13T16:43:48.145Z,4.43
2022-11-13T16:46:36.900Z,4.63
2022-11-13T16:49:24.343Z,4.80
2022-11-13T16:52:12.809Z,4.30
2022-11-13T16:55:06.119Z,5.43
2022-11-13T16:57:54.673Z,4.90
2022-11-13T17:00:42.349Z,4.97
2022-11-13T17:03:30.473Z,5.30
2022-11-13T17:06:23.192Z,4.83
2022-11-13T17:09:13.078Z,3.83
2022-11-13T17:12:00.126Z,4.00
2022-11-13T17:14:48.455Z,4.50
2022-11-13T17:17:35.762Z,4.83
2022-11-13T17:20:23.102Z,6.13
2022-11-13T17:23:17.889Z,6.10
2022-11-13T17:26:07.467Z,6.27
2022-11-13T17:28:55.482Z,6.70
2022-11-13T17:31:42.678Z,6.47
2022-11-13T17:34:31.082Z,5.27
2022-11-13T17:37:20.590Z,5.97
2022-11-13T17:40:13.064Z,6.00
2022-11-13T17:43:01.511Z,7.47
2022-11-13T17:45:51.126Z,8.13
2022-11-13T17:48:38.786Z,7.20
2022-11-13T17:51:26.437Z,6.87
2022-11-13T17:54:13.802Z,6.07
2022-11-13T17:57:02.344Z,6.50
2022-11-13T17:59:50.890Z,6.30
2022-11-13T18:02:37.961Z,6.77
2022-11-13T18:05:24.892Z,9.67
2022-11-13T18:08:12.763Z,7.53
2022-11-13T18:11:00.487Z,7.93
2022-11-13T18:13:48.912Z,8.63
2022-11-13T18:16:37.575Z,6.70
2022-11-13T18:19:24.838Z,7.47
2022-11-13T18:22:12.180Z,6.97
2022-11-13T18:25:01.597Z,9.13
2022-11-13T18:27:49.377Z,9.97
2022-11-13T18:30:39.462Z,8.13
2022-11-13T18:33:29.953Z,12.67
2022-11-13T18:36:17.216Z,12.83
2022-11-13T18:39:05.890Z,14.63
2022-11-13T18:41:55.584Z,12.27
2022-11-13T18:44:43.027Z,10.50
2022-11-13T18:47:31.027Z,9.73
2022-11-13T18:50:19.993Z,8.80
2022-11-13T18:53:07.561Z,12.87
2022-11-13T18:55:55.656Z,11.30
2022-11-13T18:58:45.094Z,10.67
2022-11-13T19:01:34.999Z,10.77
2022-11-13T19:04:23.579Z,8.93
2022-11-13T19:07:13.359Z,10.27
2022-11-13T19:10:00.557Z,9.93
2022-11-13T19:12:47.694Z,9.47
2022-11-13T19:15:37.476Z,9.77
2022-11-13T19:18:24.800Z,10.60
2022-11-13T19:21:14.858Z,10.27
2022-11-13T19:24:04.355Z,8.77
2022-11-13T19:26:52.682Z,9.00
2022-11-13T19:29:40.365Z,10.33
2022-11-13T19:32:27.821Z,8.33
2022-11-13T19:35:15.806Z,8.67
2022-11-13T19:38:03.273Z,8.20
2022-11-13T19:40:55.599Z,9.23
2022-11-13T19:43:45.226Z,9.03
2022-11-13T19:46:34.283Z,7.37
2022-11-13T19:49:21.635Z,9.27
2022-11-13T19:52:08.654Z,9.27
2022-11-13T19:54:55.926Z,8.53
2022-11-13T19:57:48.999Z,7.73
2022-11-13T20:00:37.464Z,7.17
2022-11-13T20:03:26.290Z,6.97
2022-11-13T20:06:16.844Z,8.50
2022-11-13T20:09:04.982Z,7.40
2022-11-13T20:11:51.978Z,7.83
2022-11-13T20:14:40.803Z,10.77
2022-11-13T20:17:28.793Z,10.03
2022-11-13T20:20:16.000Z,9.33
2022-11-13T20:23:08.062Z,10.33
2022-11-13T20:25:56.272Z,11.70
2022-11-13T20:28:44.429Z,11.47
2022-11-13T20:31:32.918Z,10.30
2022-11-13T20:34:20.530Z,8.90
2022-11-13T20:37:07.534Z,9.00
2022-11-13T20:40:08.570Z,10.40
2022-11-13T20:42:57.936Z,11.23
2022-11-13T20:45:47.907Z,11.87
2022-11-13T20:48:36.645Z,13.27
2022-11-13T20:51:26.062Z,10.67
2022-11-13T20:54:13.306Z,8.80
2022-11-13T20:57:00.528Z,9.50
2022-11-13T20:59:48.316Z,7.90
2022-11-13T21:02:36.629Z,9.23
2022-11-13T21:05:28.570Z,8.53
2022-11-13T21:08:15.996Z,10.10
2022-11-13T21:11:04.454Z,9.00
2022-11-13T21:13:53.741Z,10.30
2022-11-13T21:16:41.018Z,9.70
2022-11-13T21:19:31.296Z,8.60
2022-11-13T21:22:20.741Z,9.33
2022-11-13T21:25:09.553Z,11.30
2022-11-13T21:27:59.002Z,9.37
2022-11-13T21:30:46.635Z,10.17
2022-11-13T21:33:38.223Z,9.47
2022-11-13T21:36:28.170Z,10.00
2022-11-13T21:39:17.489Z,9.77
2022-11-13T21:42:05.006Z,10.20
2022-11-13T21:44:52.795Z,10.43
2022-11-13T21:47:40.151Z,9.23
2022-11-13T21:50:28.013Z,9.00
2022-11-13T21:53:15.849Z,7.97
2022-11-13T21:56:05.188Z,8.10
2022-11-13T21:58:54.480Z,7.57
2022-11-13T22:01:42.300Z,7.10
2022-11-13T22:04:35.723Z,9.83
2022-11-13T22:07:23.777Z,9.23
2022-11-13T22:10:11.007Z,9.03
2022-11-13T22:12:59.769Z,8.40
2022-11-13T22:15:47.757Z,7.90
2022-11-13T22:18:35.658Z,7.40
2022-11-13T22:21:23.439Z,9.90
2022-11-13T22:24:11.758Z,9.10
2022-11-13T22:26:59.414Z,8.70
2022-11-13T22:29:48.800Z,8.43
2022-11-13T22:32:36.237Z,9.57
2022-11-13T22:35:23.492Z,10.93
2022-11-13T22:38:12.680Z,10.10
2022-11-13T22:41:04.483Z,8.87
2022-11-13T22:43:53.358Z,8.53
2022-11-13T22:46:42.308Z,8.97
2022-11-13T22:49:29.533Z,9.43
2022-11-13T22:52:16.800Z,12.33
2022-11-13T22:55:04.064Z,10.20
2022-11-13T22:57:51.369Z,9.47
2022-11-13T23:00:38.482Z,9.43
2022-11-13T23:03:27.060Z,9.13
2022-11-13T23:06:15.433Z,8.70
2022-11-13T23:09:03.688Z,8.93
2022-11-13T23:11:50.661Z,8.77
2022-11-13T23:14:38.125Z,8.73
2022-11-13T23:17:25.685Z,9.50
2022-11-13T23:20:15.317Z,10.60
2022-11-13T23:23:02.583Z,10.17
2022-11-13T23:25:49.783Z,9.57
2022-11-13T23:28:38.302Z,8.27
2022-11-13T23:31:26.336Z,9.20
2022-11-13T23:34:13.266Z,9.00
2022-11-13T23:37:02.824Z,9.07
2022-11-13T23:39:50.345Z,11.60
2022-11-13T23:42:54.171Z,11.40
2022-11-13T23:45:42.497Z,12.93
2022-11-13T23:48:30.607Z,10.13
2022-11-13T23:51:18.421Z,9.03
2022-11-13T23:54:07.504Z,9.13
2022-11-13T23:56:55.330Z,9.00
2022-11-13T23:59:42.759Z,8.90
